Portada
METAR-TAF:

METAR-TAF

Aeroports :

Damasc, Síria

latitud: 33-25N, longitud: 036-31E, altitud: 608 m

Observació

L'informe es va fer fa 57 minuts, a les 03:00 UTC
Vent 18 kt del Sud/Sud-Oest
Temperatura 22°C
Humitat 83%
Pressió 1009 hPa
Visibilitat 10 km o més
sense núvols per sota de 1500 mi sense presència de cumulonimbus.

METAR: OSDI 210300Z 21018KT CAVOK 22/19 Q1009

Hora: 06:57 (03:57 UTC)

Pronòstic

L'informe es va fer fa 5 hores i 57 minuts, a les 22:00 UTC
Pronòstic vàlid del 21 a les 00 UTC al 22 a les 06 UTC
Vent 15 kt del Sud/Sud-Oest
Visibilitat 10 km o més
sense núvols per sota de 1500 mi sense presència de cumulonimbus.
Temporalment
l' 21 a les 06 UTC al 21 a les 18 UTC
Vent 15 kt del Oest/Sud-Oest amb ràfegues de 25 kt
Visibilitat: 8000 m
Escasses núvols a una alçada de 3000 ft

TAF: OSDI 202200Z 2100/2206 21015KT CAVOK TEMPO 2106/2118 25015G25KT 8000 FEW030

Observacions i pronòstics meteorològics de més de 4000 aeroports (METAR i TAF).

Les estacions disponibles són els punts grocs i vermells al mapa.

Posi el ratolí al punt desitjat per veure el nom de l'estació.

Feu clic per veure les observacions i els pronòstics meteorològics.

Per canviar el mapa: feu clic els botons verds amb una creu de color negre per apropar; al botó verd amb un guió per allunyar la imatge; o en les fletxes verdes per a mapes adjacents.


METAR-TAF: